Time;durP1;ratioP1;P1;durP2;ratioP2;P2;SDS_P1;SDS_P2;PMS_P1;PMS_P2;Temp;Humidity;BMP_temperature;BMP_pressure;BME280_temperature;BME280_humidity;BME280_pressure;Samples;Min_cycle;Max_cycle;Signal;HPM_P1;HPM_P2
2023/05/15 00:01:58;;;;;;;1.50;1.00;;;15.00;98.20;;;;;;4959446;28;20477;-86
2023/05/15 00:04:25;;;;;;;1.50;1.00;;;15.00;98.20;;;;;;4967241;28;20459;-86
2023/05/15 00:06:52;;;;;;;1.50;1.00;;;15.00;98.20;;;;;;4961218;28;20478;-86
2023/05/15 00:09:19;;;;;;;1.47;1.00;;;15.00;98.20;;;;;;4970696;28;20473;-85
2023/05/15 00:11:45;;;;;;;1.47;1.00;;;14.90;98.20;;;;;;4955243;28;20917;-87
2023/05/15 00:14:14;;;;;;;1.50;1.00;;;14.90;98.20;;;;;;4967884;28;20498;-85
2023/05/15 00:16:41;;;;;;;1.47;0.90;;;14.90;98.20;;;;;;4957869;28;20549;-85
2023/05/15 00:19:07;;;;;;;1.50;1.10;;;14.80;98.20;;;;;;4969947;28;20463;-88
2023/05/15 00:21:34;;;;;;;1.50;1.00;;;14.80;98.20;;;;;;4956922;28;21084;-86
2023/05/15 00:24:01;;;;;;;1.50;1.00;;;14.80;98.20;;;;;;4970249;28;20481;-86
2023/05/15 00:26:28;;;;;;;1.43;1.00;;;14.80;98.20;;;;;;4955893;28;20486;-86
2023/05/15 00:28:55;;;;;;;1.50;1.00;;;14.80;98.20;;;;;;4970757;28;20498;-86
2023/05/15 00:31:23;;;;;;;1.50;1.00;;;14.70;98.20;;;;;;4954929;28;20488;-86
2023/05/15 00:33:49;;;;;;;1.47;1.00;;;14.70;98.20;;;;;;4970866;28;20497;-85
2023/05/15 00:36:17;;;;;;;1.50;1.00;;;14.70;98.20;;;;;;4954906;28;20489;-88
2023/05/15 00:38:44;;;;;;;1.50;1.10;;;14.70;98.20;;;;;;4972667;28;20825;-85
2023/05/15 00:41:12;;;;;;;1.47;0.97;;;14.70;98.20;;;;;;4954259;28;20569;-85
2023/05/15 00:43:41;;;;;;;1.50;1.00;;;14.70;98.20;;;;;;4967800;28;20470;-85
2023/05/15 00:46:09;;;;;;;1.50;1.00;;;14.70;98.20;;;;;;4949611;28;20615;-87
2023/05/15 00:48:38;;;;;;;1.47;1.00;;;14.70;98.20;;;;;;4972482;28;20482;-85
2023/05/15 00:51:05;;;;;;;1.50;1.10;;;14.70;98.20;;;;;;4949744;28;21108;-88
2023/05/15 00:53:32;;;;;;;1.47;1.00;;;14.70;98.20;;;;;;4972149;28;20514;-84
2023/05/15 00:55:59;;;;;;;1.43;1.00;;;14.70;98.20;;;;;;4951100;28;20502;-86
2023/05/15 00:58:27;;;;;;;1.47;1.00;;;14.70;98.20;;;;;;4972984;28;20467;-84
2023/05/15 01:00:54;;;;;;;1.50;1.00;;;14.70;98.20;;;;;;4949970;28;20533;-85
2023/05/15 01:03:21;;;;;;;1.50;1.00;;;14.70;98.20;;;;;;4973908;28;20467;-87
2023/05/15 01:05:50;;;;;;;1.47;1.00;;;14.70;98.20;;;;;;4950150;28;20587;-86
2023/05/15 01:08:23;;;;;;;1.47;1.00;;;14.70;98.20;;;;;;4974154;28;20462;-85
2023/05/15 01:10:52;;;;;;;1.43;1.00;;;14.70;98.20;;;;;;4949100;28;20474;-87
2023/05/15 01:13:21;;;;;;;1.50;1.00;;;14.70;98.20;;;;;;4969765;28;21070;-84
2023/05/15 01:15:49;;;;;;;1.50;1.10;;;14.70;98.20;;;;;;4948821;28;20703;-85
2023/05/15 01:18:16;;;;;;;1.50;1.00;;;14.70;98.20;;;;;;5014709;28;20538;-86
2023/05/15 01:21:01;;;;;;;1.50;1.10;;;14.70;98.20;;;;;;4998742;28;20536;-84
2023/05/15 01:23:38;;;;;;;1.50;1.00;;;14.80;98.20;;;;;;4988209;28;20841;-85
2023/05/15 01:26:43;;;;;;;1.50;1.00;;;14.80;98.20;;;;;;4990661;28;20472;-84
2023/05/15 01:29:19;;;;;;;1.50;1.00;;;14.80;98.20;;;;;;4990130;28;20463;-85
2023/05/15 01:31:50;;;;;;;1.47;0.90;;;14.90;98.20;;;;;;4992242;28;20487;-88
2023/05/15 01:34:18;;;;;;;1.47;1.00;;;14.90;98.20;;;;;;5004984;28;20485;-82
2023/05/15 01:36:49;;;;;;;1.47;0.97;;;14.90;98.20;;;;;;4995964;28;20863;-82
2023/05/15 01:39:19;;;;;;;1.47;1.00;;;15.00;98.20;;;;;;4994047;28;20465;-86
2023/05/15 01:41:54;;;;;;;1.50;1.00;;;15.00;98.20;;;;;;4999490;28;20701;-86
2023/05/15 01:44:26;;;;;;;1.50;0.97;;;15.00;98.20;;;;;;5010577;28;20523;-85
2023/05/15 01:46:55;;;;;;;1.47;0.93;;;15.10;98.20;;;;;;5003766;28;20881;-85
2023/05/15 01:49:26;;;;;;;1.47;0.90;;;15.10;98.20;;;;;;5011561;28;20463;-86
2023/05/15 01:52:02;;;;;;;1.50;1.00;;;15.10;98.20;;;;;;5000015;28;20471;-83
2023/05/15 01:54:29;;;;;;;1.43;0.90;;;15.10;98.20;;;;;;5006210;28;20489;-84
2023/05/15 01:56:58;;;;;;;1.50;1.00;;;15.10;98.20;;;;;;5002212;28;20972;-85
2023/05/15 01:59:28;;;;;;;1.50;1.00;;;15.10;98.20;;;;;;5006298;28;20862;-80
2023/05/15 02:01:57;;;;;;;1.50;1.03;;;15.10;98.20;;;;;;4997728;28;20483;-82
2023/05/15 02:04:25;;;;;;;1.47;1.00;;;15.10;98.20;;;;;;5002841;28;20468;-83
2023/05/15 02:06:53;;;;;;;1.47;0.90;;;15.10;98.20;;;;;;5001133;28;20483;-83
2023/05/15 02:09:21;;;;;;;1.50;1.00;;;15.10;98.20;;;;;;5008680;28;20473;-85
2023/05/15 02:11:48;;;;;;;1.50;1.10;;;15.10;98.20;;;;;;4998249;28;20479;-82
2023/05/15 02:14:17;;;;;;;1.50;0.97;;;15.10;98.20;;;;;;5009858;28;20481;-84
2023/05/15 02:16:45;;;;;;;1.47;1.00;;;15.10;98.20;;;;;;4998531;28;20570;-83
2023/05/15 02:19:12;;;;;;;1.47;1.00;;;15.10;98.20;;;;;;5010322;28;20461;-82
2023/05/15 02:21:39;;;;;;;1.50;1.00;;;15.10;98.20;;;;;;4996140;28;20505;-83
2023/05/15 02:24:06;;;;;;;1.47;1.00;;;15.10;98.20;;;;;;5012425;28;20607;-83
2023/05/15 02:26:49;;;;;;;1.47;1.00;;;15.10;98.20;;;;;;4997535;28;20491;-82
2023/05/15 02:29:20;;;;;;;1.60;1.50;;;15.00;98.20;;;;;;5007064;28;20464;-84
2023/05/15 02:31:59;;;;;;;1.50;1.00;;;15.00;98.20;;;;;;4998246;28;20483;-84
2023/05/15 02:34:34;;;;;;;1.50;1.00;;;15.00;98.20;;;;;;5007952;28;20487;-83
2023/05/15 02:37:03;;;;;;;1.47;0.97;;;15.00;98.20;;;;;;5003829;28;20483;-83
2023/05/15 02:39:31;;;;;;;1.47;0.97;;;15.00;98.20;;;;;;5006446;28;20457;-83
2023/05/15 02:41:59;;;;;;;1.47;1.00;;;14.90;98.20;;;;;;5004644;28;20860;-85
2023/05/15 02:44:28;;;;;;;1.50;1.00;;;14.90;98.20;;;;;;5008147;28;20624;-84
2023/05/15 02:46:56;;;;;;;1.50;1.00;;;14.80;98.20;;;;;;5002683;28;20562;-84
2023/05/15 02:49:32;;;;;;;1.50;1.00;;;14.80;98.20;;;;;;5008637;28;20554;-85
2023/05/15 02:51:59;;;;;;;1.50;1.00;;;14.80;98.20;;;;;;5003213;28;20488;-85
2023/05/15 02:54:26;;;;;;;1.50;1.10;;;14.80;98.20;;;;;;5007529;28;20515;-85
2023/05/15 02:56:52;;;;;;;1.50;1.20;;;14.70;98.20;;;;;;5004722;28;20475;-84
2023/05/15 02:59:19;;;;;;;1.47;1.00;;;14.70;98.20;;;;;;5012390;28;20461;-83
2023/05/15 03:01:46;;;;;;;1.47;1.00;;;14.70;98.20;;;;;;5004596;28;20479;-83
2023/05/15 03:04:15;;;;;;;1.47;1.00;;;14.60;98.20;;;;;;5014823;28;20457;-84
2023/05/15 03:06:43;;;;;;;1.47;0.90;;;14.60;98.20;;;;;;5004287;28;20477;-85
2023/05/15 03:09:10;;;;;;;1.50;1.07;;;14.60;98.20;;;;;;5018655;28;20460;-85
2023/05/15 03:11:36;;;;;;;1.60;1.33;;;14.50;98.20;;;;;;5002305;28;20490;-85
2023/05/15 03:14:03;;;;;;;1.50;1.00;;;14.50;98.20;;;;;;5017967;28;20508;-86
2023/05/15 03:16:30;;;;;;;1.43;1.00;;;14.50;98.20;;;;;;4993357;28;20487;-84
2023/05/15 03:18:57;;;;;;;1.50;1.00;;;14.40;98.20;;;;;;5010435;28;20551;-85
2023/05/15 03:21:25;;;;;;;1.50;1.00;;;14.40;98.20;;;;;;4999020;28;20481;-85
2023/05/15 03:23:52;;;;;;;1.50;1.10;;;14.40;98.20;;;;;;5020113;28;20871;-84
2023/05/15 03:26:18;;;;;;;1.43;1.00;;;14.40;98.20;;;;;;4997171;28;21049;-84
2023/05/15 03:28:45;;;;;;;1.60;1.40;;;14.40;98.20;;;;;;5020871;28;20505;-84
2023/05/15 03:31:13;;;;;;;1.50;1.00;;;14.40;98.20;;;;;;4991315;28;20492;-84
2023/05/15 03:33:40;;;;;;;1.47;0.90;;;14.40;98.20;;;;;;5008448;28;20623;-83
2023/05/15 03:36:07;;;;;;;1.50;1.00;;;14.40;98.20;;;;;;4992929;28;21241;-82
2023/05/15 03:38:42;;;;;;;1.50;1.20;;;14.40;98.20;;;;;;5023306;28;20474;-84
2023/05/15 03:41:09;;;;;;;1.50;0.90;;;14.40;98.20;;;;;;4994589;28;20472;-83
2023/05/15 03:43:36;;;;;;;1.47;1.00;;;14.30;98.20;;;;;;5023911;28;20540;-84
2023/05/15 03:46:03;;;;;;;1.50;1.10;;;14.30;98.20;;;;;;4992731;28;20480;-84
2023/05/15 03:48:37;;;;;;;1.50;1.00;;;14.30;98.20;;;;;;5026918;28;20457;-85
2023/05/15 03:51:04;;;;;;;1.50;1.10;;;14.30;98.20;;;;;;4993466;28;20506;-84
2023/05/15 03:53:31;;;;;;;1.50;1.00;;;14.30;98.20;;;;;;5026667;28;20850;-84
2023/05/15 03:55:59;;;;;;;1.50;1.10;;;14.30;98.20;;;;;;4989359;28;20519;-83
2023/05/15 03:58:26;;;;;;;1.47;1.00;;;14.30;98.20;;;;;;5013790;28;21254;-83
2023/05/15 04:00:53;;;;;;;1.43;1.00;;;14.30;98.20;;;;;;4990313;28;20845;-83
2023/05/15 04:03:20;;;;;;;1.50;1.00;;;14.30;98.20;;;;;;5015860;28;20536;-84
2023/05/15 04:05:48;;;;;;;1.50;1.00;;;14.30;98.20;;;;;;4999352;28;20496;-84
2023/05/15 04:08:15;;;;;;;1.50;1.00;;;14.30;98.20;;;;;;5017525;28;20478;-85
2023/05/15 04:10:42;;;;;;;1.50;0.90;;;14.30;98.20;;;;;;5002050;28;20552;-84
2023/05/15 04:13:10;;;;;;;1.47;0.90;;;14.30;98.20;;;;;;5003754;28;20481;-83
2023/05/15 04:15:37;;;;;;;1.50;1.00;;;14.30;98.20;;;;;;5000484;28;20499;-83
2023/05/15 04:18:04;;;;;;;1.50;1.00;;;14.30;98.20;;;;;;5010339;28;21019;-83
2023/05/15 04:20:32;;;;;;;1.50;1.00;;;14.30;98.20;;;;;;4992575;28;20473;-85
2023/05/15 04:22:59;;;;;;;2.07;1.43;;;14.30;98.20;;;;;;5007100;28;20487;-83
2023/05/15 04:25:30;;;;;;;1.50;1.10;;;14.20;98.20;;;;;;4997636;28;20484;-82
2023/05/15 04:27:57;;;;;;;1.50;1.00;;;14.20;98.20;;;;;;5003000;28;20467;-85
2023/05/15 04:30:25;;;;;;;1.50;1.00;;;14.10;98.20;;;;;;4997480;28;20623;-84
2023/05/15 04:32:52;;;;;;;1.47;1.00;;;14.10;98.20;;;;;;5002039;28;20510;-84
2023/05/15 04:35:19;;;;;;;1.50;1.00;;;14.10;98.20;;;;;;4990589;28;20505;-83
2023/05/15 04:37:46;;;;;;;1.50;1.03;;;14.10;98.20;;;;;;5012080;28;20479;-83
2023/05/15 04:40:15;;;;;;;1.50;1.00;;;14.20;98.20;;;;;;4994241;28;20578;-84
2023/05/15 04:42:42;;;;;;;1.50;1.00;;;14.20;98.20;;;;;;5007199;28;20483;-84
2023/05/15 04:45:09;;;;;;;1.50;1.00;;;14.20;98.20;;;;;;4994468;28;20473;-83
2023/05/15 04:47:37;;;;;;;1.60;1.30;;;14.20;98.20;;;;;;5011096;28;20898;-84
2023/05/15 04:50:20;;;;;;;1.50;1.00;;;14.20;98.20;;;;;;4999958;28;20548;-86
2023/05/15 04:52:47;;;;;;;1.47;1.00;;;14.20;98.20;;;;;;5017126;28;20476;-85
2023/05/15 04:55:55;;;;;;;1.50;1.00;;;14.20;98.20;;;;;;4997330;28;20489;-86
2023/05/15 04:58:23;;;;;;;1.40;1.00;;;14.20;98.20;;;;;;4999305;28;20532;-85
2023/05/15 05:00:50;;;;;;;1.50;1.00;;;14.20;98.20;;;;;;4985560;28;20461;-85
2023/05/15 05:03:18;;;;;;;1.50;1.00;;;14.30;98.20;;;;;;5008567;28;20512;-81
2023/05/15 05:05:45;;;;;;;1.50;1.10;;;14.30;98.20;;;;;;4993213;28;20504;-81
2023/05/15 05:08:11;;;;;;;1.50;1.00;;;14.30;98.20;;;;;;4981255;28;20489;-83
2023/05/15 05:10:38;;;;;;;1.50;1.00;;;14.30;98.20;;;;;;4994350;28;20464;-83
2023/05/15 05:13:08;;;;;;;1.47;1.00;;;14.30;98.20;;;;;;5008389;28;20502;-83
2023/05/15 05:15:38;;;;;;;1.50;1.00;;;14.30;98.20;;;;;;4994499;28;20577;-84
2023/05/15 05:18:14;;;;;;;1.47;1.00;;;14.30;98.20;;;;;;5013100;28;20483;-83
2023/05/15 05:23:25;;;;;;;1.43;1.00;;;14.30;98.20;;;;;;4978948;28;20655;-83
2023/05/15 05:25:52;;;;;;;1.50;1.00;;;14.20;98.20;;;;;;4983996;28;20512;-85
2023/05/15 05:28:19;;;;;;;1.50;1.10;;;14.30;98.20;;;;;;5007654;28;20488;-84
2023/05/15 05:30:46;;;;;;;1.50;1.07;;;14.30;98.20;;;;;;4994162;28;20473;-85
2023/05/15 05:33:16;;;;;;;1.50;1.00;;;14.30;98.20;;;;;;5000010;28;20472;-83
2023/05/15 05:35:45;;;;;;;1.47;1.00;;;14.30;98.20;;;;;;5011279;22;20599;-80
2023/05/15 05:38:12;;;;;;;1.50;1.00;;;14.40;98.20;;;;;;5010879;28;20471;-80
2023/05/15 05:40:39;;;;;;;1.50;1.10;;;14.40;98.20;;;;;;5021177;28;20974;-84
2023/05/15 05:43:06;;;;;;;1.50;1.00;;;14.40;98.20;;;;;;5017545;28;20779;-80
2023/05/15 05:45:33;;;;;;;1.50;1.00;;;14.40;98.20;;;;;;5008846;28;20466;-82
2023/05/15 05:48:00;;;;;;;1.50;1.17;;;14.40;98.20;;;;;;5023808;28;21038;-79
2023/05/15 05:50:27;;;;;;;1.47;1.00;;;14.40;98.20;;;;;;5020938;28;21095;-79
2023/05/15 05:52:55;;;;;;;1.47;1.00;;;14.40;98.20;;;;;;5025763;28;20504;-78
2023/05/15 05:55:23;;;;;;;1.50;1.00;;;14.40;98.20;;;;;;5015234;28;20487;-79
2023/05/15 05:57:50;;;;;;;1.47;1.00;;;14.40;98.20;;;;;;5025707;28;20478;-78
2023/05/15 06:00:18;;;;;;;1.50;1.00;;;14.50;98.20;;;;;;5022581;28;20900;-80
2023/05/15 06:02:46;;;;;;;1.50;1.00;;;14.50;98.20;;;;;;5029924;28;20489;-81
2023/05/15 06:05:14;;;;;;;1.50;1.00;;;14.40;98.20;;;;;;5026806;28;20460;-80
2023/05/15 06:07:41;;;;;;;1.50;1.00;;;14.40;98.20;;;;;;5030885;28;20489;-80
2023/05/15 06:10:11;;;;;;;1.47;0.97;;;14.40;98.20;;;;;;5025900;28;20465;-80
2023/05/15 06:12:38;;;;;;;1.47;0.90;;;14.50;98.20;;;;;;5029843;28;20486;-82
2023/05/15 06:15:07;;;;;;;1.50;1.00;;;14.50;98.20;;;;;;5027376;28;20487;-80
2023/05/15 06:17:34;;;;;;;1.50;1.00;;;14.50;98.20;;;;;;5029263;28;20779;-80
2023/05/15 06:20:03;;;;;;;1.60;1.30;;;14.50;98.20;;;;;;5013847;28;20463;-80
2023/05/15 06:22:33;;;;;;;1.50;0.90;;;14.50;98.20;;;;;;5021765;28;20470;-79
2023/05/15 06:25:01;;;;;;;1.47;1.00;;;14.40;98.20;;;;;;5009456;28;20459;-80
2023/05/15 06:27:30;;;;;;;1.50;1.00;;;14.40;98.20;;;;;;5020885;28;21089;-79
2023/05/15 06:29:58;;;;;;;1.47;1.00;;;14.40;98.20;;;;;;5008516;28;20583;-79
2023/05/15 06:32:25;;;;;;;1.50;1.00;;;14.40;98.20;;;;;;5017469;28;20677;-79
2023/05/15 06:34:52;;;;;;;1.47;0.90;;;14.40;98.20;;;;;;5023902;28;20978;-80
2023/05/15 06:37:19;;;;;;;1.50;1.00;;;14.40;98.20;;;;;;5022623;28;20484;-78
2023/05/15 06:39:47;;;;;;;1.50;1.00;;;14.50;98.20;;;;;;5025149;28;20469;-80
2023/05/15 06:42:14;;;;;;;1.50;1.00;;;14.50;98.20;;;;;;5022612;28;20830;-78
2023/05/15 06:44:42;;;;;;;1.50;1.00;;;14.50;98.20;;;;;;5026506;28;20480;-79
2023/05/15 06:47:10;;;;;;;1.50;1.00;;;14.60;98.20;;;;;;5009529;28;20574;-79
2023/05/15 06:49:37;;;;;;;1.50;1.00;;;14.60;98.20;;;;;;5008143;28;20468;-81
2023/05/15 06:52:06;;;;;;;1.50;1.00;;;14.50;98.20;;;;;;5011402;28;20558;-84
2023/05/15 06:54:34;;;;;;;1.50;1.10;;;14.50;98.20;;;;;;5019367;28;20456;-82
2023/05/15 06:57:07;;;;;;;1.47;1.00;;;14.40;98.20;;;;;;5025260;28;20571;-84
2023/05/15 06:59:35;;;;;;;1.50;1.00;;;14.50;98.20;;;;;;5036299;28;21140;-79
2023/05/15 07:02:19;;;;;;;1.50;1.00;;;14.40;98.20;;;;;;5012206;28;20493;-79
2023/05/15 07:04:47;;;;;;;1.50;1.00;;;14.30;98.20;;;;;;5015404;28;20468;-82
2023/05/15 07:07:15;;;;;;;1.43;0.90;;;14.30;98.20;;;;;;5011379;28;20488;-81
2023/05/15 07:09:47;;;;;;;1.43;1.00;;;14.40;98.20;;;;;;5015985;28;20463;-81
2023/05/15 07:12:14;;;;;;;2.43;2.23;;;14.40;98.20;;;;;;5026121;28;20470;-81
2023/05/15 07:14:42;;;;;;;1.47;1.00;;;14.40;98.20;;;;;;5021826;28;20673;-80
2023/05/15 07:17:09;;;;;;;1.50;1.00;;;14.40;98.20;;;;;;5001845;28;20492;-80
2023/05/15 07:19:39;;;;;;;1.60;1.50;;;14.40;98.20;;;;;;5019678;28;20460;-83
2023/05/15 07:22:07;;;;;;;1.70;1.47;;;14.50;98.20;;;;;;5008270;28;20475;-80
2023/05/15 07:24:37;;;;;;;1.50;0.90;;;14.60;98.20;;;;;;5030433;28;20469;-82
2023/05/15 07:27:05;;;;;;;1.47;0.90;;;14.70;98.20;;;;;;5024855;28;20483;-81
2023/05/15 07:29:35;;;;;;;1.50;1.13;;;14.80;98.20;;;;;;5034888;28;20463;-84
2023/05/15 07:32:03;;;;;;;1.50;1.00;;;14.90;98.20;;;;;;5026705;28;20569;-87
2023/05/15 07:34:30;;;;;;;2.17;1.77;;;15.00;98.20;;;;;;5037704;28;20517;-81
2023/05/15 07:36:59;;;;;;;1.50;1.13;;;15.10;98.20;;;;;;5020229;28;20483;-84
2023/05/15 07:39:27;;;;;;;1.47;0.90;;;15.20;98.20;;;;;;5017522;28;20945;-81
2023/05/15 07:41:56;;;;;;;1.50;1.00;;;15.30;98.20;;;;;;5011217;28;20598;-83
2023/05/15 07:44:23;;;;;;;1.50;1.10;;;15.40;98.20;;;;;;5021165;28;20806;-83
2023/05/15 07:46:52;;;;;;;1.47;0.97;;;15.40;98.20;;;;;;5009779;28;20494;-83
2023/05/15 07:49:20;;;;;;;1.50;1.00;;;15.50;98.20;;;;;;5016853;28;20534;-80
2023/05/15 07:51:47;;;;;;;1.50;0.97;;;15.60;98.20;;;;;;5005254;28;20549;-80
2023/05/15 07:54:16;;;;;;;1.50;0.97;;;15.70;98.20;;;;;;5028998;28;20521;-81
2023/05/15 07:56:44;;;;;;;1.50;1.00;;;15.80;98.20;;;;;;5009865;28;20515;-82
2023/05/15 07:59:11;;;;;;;1.50;1.00;;;15.90;98.20;;;;;;5032346;28;20948;-80
2023/05/15 08:01:38;;;;;;;1.50;0.93;;;15.90;98.20;;;;;;5007898;28;20483;-80
2023/05/15 08:04:08;;;;;;;1.50;1.10;;;16.00;98.20;;;;;;5016714;28;20786;-79
2023/05/15 08:06:37;;;;;;;1.50;1.00;;;16.00;98.20;;;;;;5011259;28;20486;-78
2023/05/15 08:09:04;;;;;;;1.50;0.90;;;16.20;98.20;;;;;;5025783;28;20455;-79
2023/05/15 08:11:33;;;;;;;1.47;1.00;;;16.40;98.20;;;;;;5010989;28;20513;-80
2023/05/15 08:14:00;;;;;;;1.50;1.00;;;16.70;98.20;;;;;;5031227;28;20460;-80
2023/05/15 08:16:27;;;;;;;1.50;0.90;;;17.00;98.20;;;;;;5005192;28;20467;-81
2023/05/15 08:18:59;;;;;;;1.50;1.00;;;17.10;98.20;;;;;;5020197;28;20554;-80
2023/05/15 08:21:28;;;;;;;1.50;0.90;;;17.30;98.20;;;;;;5003571;28;20558;-80
2023/05/15 08:23:55;;;;;;;1.50;0.90;;;17.60;98.20;;;;;;5025506;28;20985;-80
2023/05/15 08:26:23;;;;;;;1.50;0.97;;;17.90;98.20;;;;;;5014741;28;20470;-81
2023/05/15 08:28:52;;;;;;;1.50;0.90;;;18.10;98.20;;;;;;5037167;28;20460;-80
2023/05/15 08:31:20;;;;;;;1.50;0.90;;;18.10;98.20;;;;;;5016563;28;20466;-80
2023/05/15 08:33:47;;;;;;;1.50;0.90;;;18.20;98.20;;;;;;5032860;28;20468;-79
2023/05/15 08:36:17;;;;;;;1.47;0.90;;;18.20;98.20;;;;;;5009991;28;20471;-79
2023/05/15 08:38:44;;;;;;;1.50;1.00;;;18.30;98.20;;;;;;5022157;28;20465;-80
2023/05/15 08:41:18;;;;;;;1.80;1.60;;;18.60;98.20;;;;;;4999966;28;20509;-80
2023/05/15 08:43:47;;;;;;;1.50;0.90;;;18.90;98.20;;;;;;5020486;28;20883;-80
2023/05/15 08:46:16;;;;;;;1.83;1.70;;;19.20;96.80;;;;;;5008971;28;20467;-81
2023/05/15 08:48:44;;;;;;;1.50;0.90;;;19.40;96.30;;;;;;5019896;28;20464;-82
2023/05/15 08:51:12;;;;;;;1.50;1.00;;;19.60;95.00;;;;;;5006400;28;20474;-83
2023/05/15 08:53:39;;;;;;;1.50;0.90;;;19.70;94.20;;;;;;5028798;28;20575;-83
2023/05/15 08:56:07;;;;;;;1.50;0.90;;;19.80;94.80;;;;;;4999984;28;20494;-80
2023/05/15 08:58:34;;;;;;;1.50;0.90;;;19.90;93.20;;;;;;5030269;28;20463;-81
2023/05/15 09:01:01;;;;;;;2.20;1.20;;;19.90;93.60;;;;;;4997449;28;20742;-80
2023/05/15 09:03:31;;;;;;;1.50;0.90;;;20.10;94.80;;;;;;5016603;28;20468;-82
2023/05/15 09:05:59;;;;;;;1.57;1.10;;;20.30;93.80;;;;;;4999603;28;20538;-81
2023/05/15 09:08:30;;;;;;;1.47;0.87;;;20.50;92.40;;;;;;5034651;28;20496;-81
2023/05/15 09:10:58;;;;;;;1.50;0.90;;;20.60;91.30;;;;;;5002427;28;20464;-84
2023/05/15 09:13:25;;;;;;;1.50;0.90;;;20.80;91.20;;;;;;5031735;28;20550;-80
2023/05/15 09:15:58;;;;;;;1.50;0.90;;;20.90;90.50;;;;;;4999017;28;20504;-80
2023/05/15 09:18:27;;;;;;;1.47;0.90;;;20.90;89.60;;;;;;5019135;28;20635;-84
2023/05/15 09:20:57;;;;;;;1.50;0.90;;;21.00;89.10;;;;;;5003866;28;20718;-87
2023/05/15 09:23:32;;;;;;;1.50;1.10;;;21.10;90.40;;;;;;5035649;28;20486;-83
2023/05/15 09:26:38;;;;;;;1.50;0.87;;;21.10;88.90;;;;;;5019789;28;20494;-83
2023/05/15 09:29:08;;;;;;;2.10;1.83;;;21.20;88.30;;;;;;5037157;28;20475;-84
2023/05/15 09:31:36;;;;;;;1.50;0.90;;;21.40;87.80;;;;;;5019789;28;21038;-82
2023/05/15 09:34:05;;;;;;;1.50;0.90;;;21.50;88.90;;;;;;5043747;28;20554;-83
2023/05/15 09:39:49;;;;;;;1.50;0.90;;;21.80;85.30;;;;;;5010999;28;20470;-81
2023/05/15 09:42:18;;;;;;;1.50;0.90;;;22.00;86.60;;;;;;5022299;28;20477;-79
2023/05/15 09:44:53;;;;;;;1.50;0.90;;;22.20;87.10;;;;;;5026105;28;20467;-82
2023/05/15 09:47:23;;;;;;;1.50;0.90;;;22.30;85.00;;;;;;5023146;28;20551;-80
2023/05/15 09:49:52;;;;;;;1.97;1.30;;;22.50;85.40;;;;;;5026164;28;20464;-82
2023/05/15 09:52:22;;;;;;;1.47;0.80;;;22.70;84.30;;;;;;5021299;28;20478;-82
2023/05/15 09:54:53;;;;;;;1.97;1.80;;;22.80;82.30;;;;;;5022659;28;20541;-82
2023/05/15 09:57:23;;;;;;;1.50;0.90;;;23.00;83.20;;;;;;5025766;28;20561;-82
2023/05/15 09:59:53;;;;;;;1.50;0.90;;;23.20;84.10;;;;;;5026921;28;20471;-81
2023/05/15 10:02:26;;;;;;;5.40;3.20;;;23.40;81.30;;;;;;4996179;28;20485;-80
2023/05/15 10:04:59;;;;;;;1.50;0.90;;;23.40;82.20;;;;;;4995377;28;20470;-81
2023/05/15 10:07:30;;;;;;;1.40;0.80;;;23.50;81.70;;;;;;5006214;28;20478;-79
2023/05/15 10:10:21;;;;;;;2.53;1.27;;;23.70;79.80;;;;;;5004961;28;20507;-80
2023/05/15 10:12:51;;;;;;;1.50;0.90;;;23.60;79.90;;;;;;5007842;28;20475;-79
2023/05/15 10:15:21;;;;;;;1.47;0.90;;;23.60;79.70;;;;;;5006385;28;20471;-80
2023/05/15 10:17:51;;;;;;;1.50;0.90;;;23.80;78.70;;;;;;5026748;28;20991;-80
2023/05/15 10:21:10;;;;;;;1.47;0.80;;;23.80;77.80;;;;;;5021952;28;20520;-79
2023/05/15 10:23:42;;;;;;;8.10;7.03;;;23.70;78.20;;;;;;5011529;28;20490;-79
2023/05/15 10:26:25;;;;;;;1.50;0.80;;;23.90;77.60;;;;;;5012535;28;20750;-79
2023/05/15 10:29:01;;;;;;;1.47;0.80;;;24.10;77.60;;;;;;5030991;28;20525;-80
2023/05/15 10:31:34;;;;;;;1.50;0.90;;;24.30;75.60;;;;;;5018006;28;20534;-80
2023/05/15 10:34:12;;;;;;;1.47;0.80;;;24.40;76.90;;;;;;5035331;28;20470;-80
2023/05/15 10:40:11;;;;;;;1.43;0.83;;;24.50;76.20;;;;;;4964514;28;20556;-79
2023/05/15 10:42:44;;;;;;;1.47;0.80;;;24.60;75.80;;;;;;5027942;28;20486;-79
2023/05/15 10:45:14;;;;;;;1.50;0.90;;;24.70;75.70;;;;;;5023333;28;20467;-78
2023/05/15 10:47:43;;;;;;;1.60;1.20;;;24.90;75.00;;;;;;5028571;28;20481;-77
2023/05/15 10:50:13;;;;;;;1.50;0.90;;;25.10;75.30;;;;;;5023392;28;20566;-78
2023/05/15 10:52:50;;;;;;;1.50;0.90;;;25.20;74.60;;;;;;5030959;28;20470;-78
2023/05/15 10:55:43;;;;;;;1.47;0.90;;;25.20;74.50;;;;;;5023716;28;20478;-80
2023/05/15 10:58:12;;;;;;;1.50;0.90;;;25.40;76.90;;;;;;5011571;28;20472;-80
2023/05/15 11:00:44;;;;;;;1.43;0.80;;;25.50;75.10;;;;;;5025038;28;20789;-80
2023/05/15 11:03:14;;;;;;;1.47;0.80;;;25.60;74.70;;;;;;5011169;28;20483;-79
2023/05/15 11:06:11;;;;;;;1.47;0.90;;;25.60;76.50;;;;;;4997111;28;20515;-79
2023/05/15 11:08:43;;;;;;;1.43;0.80;;;25.80;74.80;;;;;;4985368;28;20475;-79
2023/05/15 11:11:55;;;;;;;1.47;0.80;;;25.90;74.70;;;;;;4989644;28;20580;-78
2023/05/15 11:14:26;;;;;;;1.50;1.00;;;26.10;73.50;;;;;;5018027;28;20496;-79
2023/05/15 11:17:06;;;;;;;1.43;0.80;;;26.20;73.80;;;;;;5026386;28;21027;-79
2023/05/15 11:19:35;;;;;;;1.47;0.90;;;26.30;72.40;;;;;;5019760;28;20463;-78
2023/05/15 11:22:26;;;;;;;1.50;0.80;;;26.10;71.20;;;;;;5021378;28;20531;-78
2023/05/15 11:24:55;;;;;;;1.47;0.90;;;26.10;73.60;;;;;;5020199;28;20466;-78
2023/05/15 11:27:25;;;;;;;1.50;0.90;;;26.30;73.30;;;;;;5023367;28;21265;-78
2023/05/15 11:30:12;;;;;;;1.50;0.90;;;26.40;72.40;;;;;;5023769;28;20955;-77
2023/05/15 11:32:57;;;;;;;1.50;0.80;;;26.40;71.40;;;;;;5010864;28;20869;-77
2023/05/15 11:35:27;;;;;;;1.50;0.90;;;26.40;71.50;;;;;;5003688;28;20471;-79
2023/05/15 11:41:39;;;;;;;1.47;0.80;;;26.30;70.60;;;;;;4992535;28;20473;-78
2023/05/15 11:44:08;;;;;;;1.50;0.90;;;26.50;69.60;;;;;;5029217;28;21121;-78
2023/05/15 11:46:37;;;;;;;1.50;1.10;;;26.70;69.40;;;;;;5011750;28;20498;-78
2023/05/15 11:49:05;;;;;;;1.47;0.80;;;26.80;68.40;;;;;;5021972;28;20575;-77
2023/05/15 11:51:32;;;;;;;1.50;0.90;;;26.90;67.40;;;;;;5017840;28;20523;-78
2023/05/15 11:54:03;;;;;;;1.47;0.90;;;26.80;67.30;;;;;;5030280;28;20524;-77
2023/05/15 11:56:30;;;;;;;1.60;1.33;;;26.90;68.80;;;;;;5020308;28;20493;-77
2023/05/15 11:59:03;;;;;;;1.43;0.80;;;27.10;67.50;;;;;;5029872;28;20466;-77
2023/05/15 12:01:41;;;;;;;1.50;0.90;;;27.10;67.00;;;;;;5008546;28;20943;-79
2023/05/15 12:04:15;;;;;;;1.47;0.80;;;26.90;66.00;;;;;;5012980;28;20557;-79
2023/05/15 12:06:43;;;;;;;1.40;0.80;;;26.80;65.70;;;;;;5002389;28;20631;-78
2023/05/15 12:09:15;;;;;;;1.43;0.80;;;26.70;67.10;;;;;;5015636;28;20474;-78
2023/05/15 12:11:49;;;;;;;1.43;0.80;;;26.60;67.40;;;;;;5010423;28;20482;-78
2023/05/15 12:14:16;;;;;;;1.50;0.80;;;26.40;66.20;;;;;;5010601;28;20463;-78
2023/05/15 12:17:06;;;;;;;1.43;0.90;;;26.40;69.70;;;;;;5003516;28;20489;-78
2023/05/15 12:19:35;;;;;;;1.40;0.90;;;26.60;67.10;;;;;;5005796;28;20479;-77
2023/05/15 12:22:05;;;;;;;1.47;0.80;;;26.70;67.30;;;;;;5013613;28;20493;-78
2023/05/15 12:24:35;;;;;;;1.50;1.00;;;26.80;68.00;;;;;;5022806;28;20462;-79
2023/05/15 12:27:12;;;;;;;1.47;0.80;;;26.80;68.50;;;;;;5019487;28;20515;-78
2023/05/15 12:29:40;;;;;;;1.60;1.23;;;26.90;67.20;;;;;;5018179;28;20466;-77
2023/05/15 12:32:09;;;;;;;1.50;0.80;;;26.90;66.00;;;;;;5017637;28;20485;-78
2023/05/15 12:34:37;;;;;;;1.40;0.80;;;26.70;65.50;;;;;;5019046;28;20605;-76
2023/05/15 12:37:36;;;;;;;;;;;;;;;;;;;;;
2023/05/15 12:40:09;;;;;;;2.80;1.40;;;26.90;68.10;;;;;;5017549;28;20463;-76
2023/05/15 12:42:42;;;;;;;1.47;0.87;;;27.00;66.60;;;;;;5023625;28;20495;-76
2023/05/15 12:45:14;;;;;;;1.50;0.80;;;27.20;67.00;;;;;;5019518;28;20549;-77
2023/05/15 12:47:45;;;;;;;1.47;0.90;;;27.30;66.00;;;;;;5024267;28;20572;-76
2023/05/15 12:50:17;;;;;;;1.50;0.90;;;27.40;65.20;;;;;;5014123;28;20471;-77
2023/05/15 12:52:54;;;;;;;1.43;0.80;;;27.40;66.40;;;;;;5022782;28;20477;-77
2023/05/15 12:55:26;;;;;;;1.50;0.90;;;27.50;65.80;;;;;;5019757;28;20474;-79
2023/05/15 12:57:56;;;;;;;1.50;0.80;;;27.40;65.40;;;;;;5016095;28;20904;-77
2023/05/15 13:00:24;;;;;;;1.40;0.87;;;27.40;66.40;;;;;;5006600;28;20494;-79
2023/05/15 13:02:54;;;;;;;1.40;0.80;;;27.50;65.10;;;;;;5012528;28;20481;-79
2023/05/15 13:05:24;;;;;;;1.47;0.80;;;27.50;66.50;;;;;;4995865;28;20490;-77
2023/05/15 13:07:51;;;;;;;1.60;1.00;;;27.50;64.00;;;;;;5021329;28;20493;-76
2023/05/15 13:10:22;;;;;;;1.47;0.80;;;27.40;64.00;;;;;;5021278;28;20481;-77
2023/05/15 13:12:52;;;;;;;1.50;0.90;;;27.30;65.30;;;;;;5026434;28;20810;-77
2023/05/15 13:15:25;;;;;;;1.47;0.80;;;27.30;65.00;;;;;;5023639;28;20467;-80
2023/05/15 13:17:59;;;;;;;1.40;0.80;;;27.30;64.20;;;;;;5029935;28;20481;-77